createdAt,value
2019-05-12T00:00:48.410Z,72.10
2019-05-12T00:03:19.391Z,71.70
2019-05-12T00:05:50.237Z,71.90
2019-05-12T00:08:21.125Z,72.10
2019-05-12T00:10:52.547Z,72.10
2019-05-12T00:13:23.400Z,72.20
2019-05-12T00:15:54.204Z,71.80
2019-05-12T00:18:25.435Z,72.50
2019-05-12T00:20:57.928Z,72.30
2019-05-12T00:23:31.177Z,72.50
2019-05-12T00:26:01.765Z,72.70
2019-05-12T00:28:32.753Z,72.90
2019-05-12T00:31:03.673Z,72.90
2019-05-12T00:33:34.642Z,73.10
2019-05-12T00:36:05.503Z,72.90
2019-05-12T00:38:38.187Z,72.70
2019-05-12T00:41:09.094Z,72.60
2019-05-12T00:43:40.019Z,72.40
2019-05-12T00:46:11.056Z,72.50
2019-05-12T00:48:41.950Z,72.70
2019-05-12T00:51:12.845Z,73.00
2019-05-12T00:53:43.617Z,72.30
2019-05-12T00:56:14.505Z,72.70
2019-05-12T00:58:45.348Z,73.00
2019-05-12T01:01:18.331Z,73.10
2019-05-12T01:03:48.711Z,72.70
2019-05-12T01:06:19.629Z,73.00
2019-05-12T01:08:50.479Z,73.20
2019-05-12T01:11:22.424Z,73.40
2019-05-12T01:13:53.272Z,73.50
2019-05-12T01:16:24.161Z,73.40
2019-05-12T01:18:54.997Z,73.10
2019-05-12T01:21:25.928Z,73.20
2019-05-12T01:24:03.103Z,73.40
2019-05-12T01:26:29.314Z,73.20
2019-05-12T01:29:01.163Z,73.10
2019-05-12T01:31:35.096Z,73.10
2019-05-12T01:34:07.933Z,73.50
2019-05-12T01:36:38.534Z,73.50
2019-05-12T01:39:09.509Z,73.60
2019-05-12T01:41:40.501Z,73.70
2019-05-12T01:44:11.398Z,74.00
2019-05-12T01:46:42.583Z,73.10
2019-05-12T01:49:13.454Z,73.10
2019-05-12T01:51:44.317Z,72.80
2019-05-12T01:54:15.365Z,72.60
2019-05-12T01:56:48.142Z,72.60
2019-05-12T01:59:18.708Z,72.80
2019-05-12T02:01:49.504Z,72.70
2019-05-12T02:04:20.511Z,72.70
2019-05-12T02:06:51.395Z,73.10
2019-05-12T02:09:24.110Z,72.70
2019-05-12T02:11:55.227Z,72.90
2019-05-12T02:14:27.596Z,72.90
2019-05-12T02:16:58.532Z,72.90
2019-05-12T02:19:29.399Z,72.70
2019-05-12T02:22:00.302Z,72.30
2019-05-12T02:24:31.149Z,72.70
2019-05-12T02:27:01.963Z,72.80
2019-05-12T02:29:32.824Z,72.90
2019-05-12T02:32:03.737Z,73.00
2019-05-12T02:34:35.065Z,73.10
2019-05-12T02:37:06.093Z,73.50
2019-05-12T02:39:36.969Z,73.10
2019-05-12T02:42:07.805Z,72.70
2019-05-12T02:44:38.738Z,72.20
2019-05-12T02:47:09.610Z,72.50
2019-05-12T02:49:40.490Z,72.60
2019-05-12T02:52:11.525Z,73.00
2019-05-12T02:54:51.876Z,72.60
2019-05-12T02:57:15.806Z,72.60
2019-05-12T02:59:48.327Z,72.70
2019-05-12T03:02:20.626Z,72.70
2019-05-12T03:04:54.852Z,72.60
2019-05-12T03:07:27.942Z,72.40
2019-05-12T03:10:04.585Z,72.40
2019-05-12T03:12:34.564Z,72.80
2019-05-12T03:15:06.286Z,73.00
2019-05-12T03:17:37.261Z,73.30
2019-05-12T03:20:08.195Z,73.40
2019-05-12T03:22:40.307Z,73.60
2019-05-12T03:25:19.905Z,73.30
2019-05-12T03:27:44.552Z,72.80
2019-05-12T03:30:19.155Z,72.80
2019-05-12T03:32:48.361Z,73.10
2019-05-12T03:35:19.277Z,74.10
2019-05-12T03:37:50.127Z,73.10
2019-05-12T03:40:20.908Z,72.90
2019-05-12T03:42:54.783Z,72.70
2019-05-12T03:45:25.145Z,72.30
2019-05-12T03:47:56.113Z,72.50
2019-05-12T03:50:26.966Z,71.90
2019-05-12T03:52:57.860Z,71.70
2019-05-12T03:55:36.040Z,71.70
2019-05-12T03:58:04.359Z,72.10
2019-05-12T04:00:35.963Z,72.30
2019-05-12T04:03:06.552Z,72.00
2019-05-12T04:05:37.384Z,71.80
2019-05-12T04:08:08.552Z,72.00
2019-05-12T04:10:39.453Z,71.90
2019-05-12T04:13:10.357Z,70.60
2019-05-12T04:15:45.110Z,70.50
2019-05-12T04:18:15.958Z,70.10
2019-05-12T04:20:47.460Z,70.00
2019-05-12T04:23:18.316Z,70.10
2019-05-12T04:25:56.965Z,70.40
2019-05-12T04:28:24.586Z,70.70
2019-05-12T04:30:54.639Z,70.90
2019-05-12T04:33:25.897Z,70.80
2019-05-12T04:35:56.882Z,70.40
2019-05-12T04:38:28.695Z,70.40
2019-05-12T04:40:59.530Z,70.30
2019-05-12T04:43:30.304Z,70.40
2019-05-12T04:46:01.519Z,70.80
2019-05-12T04:48:35.772Z,71.00
2019-05-12T04:51:05.252Z,70.40
2019-05-12T04:53:36.131Z,70.60
2019-05-12T04:56:15.666Z,70.90
2019-05-12T04:58:39.785Z,71.10
2019-05-12T05:01:10.637Z,71.20
2019-05-12T05:03:44.094Z,71.20
2019-05-12T05:06:14.883Z,72.00
2019-05-12T05:08:45.908Z,71.20
2019-05-12T05:11:16.773Z,71.10
2019-05-12T05:13:47.640Z,71.10
2019-05-12T05:16:18.460Z,71.20
2019-05-12T05:18:49.410Z,71.00
2019-05-12T05:21:20.304Z,70.80
2019-05-12T05:23:53.538Z,70.60
2019-05-12T05:26:27.817Z,70.90
2019-05-12T05:28:56.156Z,71.00
2019-05-12T05:31:27.135Z,70.90
2019-05-12T05:33:58.007Z,70.80
2019-05-12T05:36:28.849Z,70.60
2019-05-12T05:39:01.678Z,70.40
2019-05-12T05:41:34.516Z,70.40
2019-05-12T05:44:06.420Z,70.00
2019-05-12T05:46:39.031Z,70.10
2019-05-12T05:49:09.883Z,70.10
2019-05-12T05:51:46.644Z,70.20
2019-05-12T05:54:13.792Z,69.80
2019-05-12T05:56:57.396Z,69.80
2019-05-12T05:59:23.334Z,70.00
2019-05-12T06:01:51.964Z,69.80
2019-05-12T06:04:23.791Z,69.80
2019-05-12T06:06:56.065Z,69.60
2019-05-12T06:09:27.063Z,69.40
2019-05-12T06:11:58.969Z,69.40
2019-05-12T06:14:30.515Z,69.30
2019-05-12T06:17:01.376Z,69.20
2019-05-12T06:19:34.227Z,69.10
2019-05-12T06:22:09.046Z,69.10
2019-05-12T06:24:37.410Z,69.30
2019-05-12T06:27:15.122Z,69.20
2019-05-12T06:29:43.743Z,69.00
2019-05-12T06:32:14.663Z,68.20
2019-05-12T06:34:45.565Z,68.30
2019-05-12T06:37:17.256Z,68.70
2019-05-12T06:39:50.872Z,68.70
2019-05-12T06:42:20.652Z,68.70
2019-05-12T06:44:54.863Z,68.40
2019-05-12T06:47:25.054Z,68.20
2019-05-12T06:49:58.124Z,68.40
2019-05-12T06:52:28.706Z,68.70
2019-05-12T06:54:59.632Z,68.90
2019-05-12T06:57:48.165Z,69.00
2019-05-12T07:00:17.357Z,68.90
2019-05-12T07:02:52.418Z,69.00
2019-05-12T07:05:23.289Z,69.10
2019-05-12T07:07:53.794Z,69.20
2019-05-12T07:10:36.824Z,69.30
2019-05-12T07:13:01.743Z,69.10
2019-05-12T07:15:35.675Z,69.30
2019-05-12T07:18:07.140Z,69.30
2019-05-12T07:20:39.173Z,69.00
2019-05-12T07:23:10.666Z,69.00
2019-05-12T07:25:41.526Z,69.10
2019-05-12T07:28:14.438Z,69.30
2019-05-12T07:30:44.961Z,69.30
2019-05-12T07:33:15.895Z,69.10
2019-05-12T07:35:47.716Z,69.00
2019-05-12T07:38:21.552Z,69.10
2019-05-12T07:40:53.631Z,68.90
2019-05-12T07:43:27.569Z,68.30
2019-05-12T07:46:02.242Z,68.40
2019-05-12T07:48:33.441Z,68.30
2019-05-12T07:51:04.505Z,68.20
2019-05-12T07:53:35.435Z,67.80
2019-05-12T07:56:06.367Z,67.40
2019-05-12T07:58:40.864Z,67.40
2019-05-12T08:01:09.734Z,67.30
2019-05-12T08:03:40.715Z,67.20
2019-05-12T08:06:14.187Z,67.00
2019-05-12T08:08:50.557Z,67.30
2019-05-12T08:11:17.911Z,66.40
2019-05-12T08:13:48.807Z,66.00
2019-05-12T08:16:25.641Z,65.50
2019-05-12T08:18:53.469Z,64.80
2019-05-12T08:21:25.373Z,64.20
2019-05-12T08:23:56.549Z,63.60
2019-05-12T08:26:27.394Z,63.10
2019-05-12T08:28:58.270Z,62.70
2019-05-12T08:31:33.069Z,63.00
2019-05-12T08:34:04.050Z,62.80
2019-05-12T08:36:34.217Z,63.00
2019-05-12T08:39:12.016Z,63.20
2019-05-12T08:41:39.974Z,63.00
2019-05-12T08:44:13.385Z,62.70
2019-05-12T08:46:52.049Z,62.90
2019-05-12T08:49:16.063Z,63.20
2019-05-12T08:51:49.605Z,63.10
2019-05-12T08:54:19.453Z,62.10
2019-05-12T08:56:51.108Z,61.10
2019-05-12T08:59:27.115Z,60.50
2019-05-12T09:02:00.583Z,60.60
2019-05-12T09:04:28.090Z,59.60
2019-05-12T09:06:59.937Z,58.00
2019-05-12T09:09:30.994Z,55.80
2019-05-12T09:12:03.596Z,55.50
2019-05-12T09:14:41.108Z,52.50
2019-05-12T09:17:07.548Z,50.70
2019-05-12T09:19:39.454Z,49.20
2019-05-12T09:22:16.670Z,50.00
2019-05-12T09:24:44.078Z,50.00
2019-05-12T09:27:16.005Z,49.80
2019-05-12T09:29:46.914Z,49.60
2019-05-12T09:32:17.785Z,50.00
2019-05-12T09:34:53.213Z,48.00
2019-05-12T09:37:23.959Z,47.90
2019-05-12T09:39:54.311Z,48.80
2019-05-12T09:42:29.862Z,50.40
2019-05-12T09:45:00.091Z,51.30
2019-05-12T09:47:30.236Z,51.20
2019-05-12T09:50:01.097Z,49.20
2019-05-12T09:52:33.335Z,47.80
2019-05-12T09:55:04.426Z,48.00
2019-05-12T09:57:40.602Z,48.50
2019-05-12T10:00:08.042Z,47.80
2019-05-12T10:02:38.975Z,48.00
2019-05-12T10:05:10.054Z,49.20
2019-05-12T10:07:40.942Z,49.50
2019-05-12T10:10:14.003Z,49.00
2019-05-12T10:12:50.358Z,49.50
2019-05-12T10:15:18.704Z,48.90
2019-05-12T10:17:50.270Z,48.20
2019-05-12T10:20:24.092Z,47.80
2019-05-12T10:22:54.804Z,47.30
2019-05-12T10:25:28.315Z,45.10
2019-05-12T10:28:03.051Z,44.70
2019-05-12T10:30:30.645Z,44.60
2019-05-12T10:33:03.809Z,45.10
2019-05-12T10:35:35.094Z,45.10
2019-05-12T10:38:10.479Z,44.80
2019-05-12T10:40:38.753Z,45.00
2019-05-12T10:43:09.694Z,44.70
2019-05-12T10:45:40.495Z,45.30
2019-05-12T10:48:13.948Z,45.30
2019-05-12T10:50:44.439Z,44.70
2019-05-12T10:53:17.740Z,44.70
2019-05-12T10:55:47.853Z,43.70
2019-05-12T10:58:18.808Z,44.10
2019-05-12T11:00:49.744Z,44.80
2019-05-12T11:03:20.587Z,45.60
2019-05-12T11:05:54.623Z,45.80
2019-05-12T11:08:24.664Z,46.00
2019-05-12T11:11:01.143Z,46.50
2019-05-12T11:13:28.180Z,46.10
2019-05-12T11:15:59.106Z,46.00
2019-05-12T11:18:30.638Z,46.50
2019-05-12T11:21:03.634Z,46.00
2019-05-12T11:23:34.533Z,45.30
2019-05-12T11:26:05.760Z,44.40
2019-05-12T11:28:36.804Z,44.00
2019-05-12T11:31:07.627Z,43.50
2019-05-12T11:33:39.500Z,42.40
2019-05-12T11:36:13.585Z,42.20
2019-05-12T11:38:44.559Z,41.70
2019-05-12T11:41:19.922Z,42.20
2019-05-12T11:43:47.913Z,42.30
2019-05-12T11:46:19.083Z,42.50
2019-05-12T11:48:50.516Z,42.70
2019-05-12T11:51:26.980Z,41.80
2019-05-12T11:53:54.275Z,41.70
2019-05-12T11:56:25.145Z,40.40
2019-05-12T11:58:56.046Z,39.80
2019-05-12T12:01:28.249Z,39.40
2019-05-12T12:03:59.540Z,41.10
2019-05-12T12:06:30.415Z,41.10
2019-05-12T12:09:03.961Z,41.60
2019-05-12T12:11:34.814Z,41.90
2019-05-12T12:14:10.331Z,41.20
2019-05-12T12:16:42.001Z,41.30
2019-05-12T12:19:11.025Z,41.00
2019-05-12T12:21:48.041Z,40.30
2019-05-12T12:24:14.468Z,40.50
2019-05-12T12:26:45.355Z,40.60
2019-05-12T12:29:16.492Z,40.90
2019-05-12T12:31:51.830Z,41.00
2019-05-12T12:34:25.085Z,40.10
2019-05-12T12:36:55.333Z,40.10
2019-05-12T12:39:26.234Z,40.00
2019-05-12T12:42:00.497Z,39.80
2019-05-12T12:44:29.726Z,38.80
2019-05-12T12:47:01.894Z,39.20
2019-05-12T12:49:33.911Z,39.80
2019-05-12T12:52:04.951Z,39.70
2019-05-12T12:54:36.073Z,38.60
2019-05-12T12:57:09.973Z,38.40
2019-05-12T12:59:42.829Z,39.00
2019-05-12T13:02:14.155Z,38.90
2019-05-12T13:04:48.406Z,38.80
2019-05-12T13:07:16.806Z,38.70
2019-05-12T13:09:47.692Z,39.10
2019-05-12T13:12:19.751Z,39.10
2019-05-12T13:14:53.103Z,39.00
2019-05-12T13:17:27.110Z,38.50
2019-05-12T13:19:58.653Z,38.20
2019-05-12T13:22:29.714Z,37.80
2019-05-12T13:25:04.443Z,38.00
2019-05-12T13:27:36.713Z,38.30
2019-05-12T13:30:06.401Z,38.60
2019-05-12T13:32:37.889Z,38.10
2019-05-12T13:35:09.824Z,37.90
2019-05-12T13:37:43.327Z,38.00
2019-05-12T13:40:14.491Z,38.30
2019-05-12T13:42:45.376Z,38.50
2019-05-12T13:45:16.597Z,38.20
2019-05-12T13:47:47.424Z,36.90
2019-05-12T13:50:21.790Z,37.00
2019-05-12T13:52:50.902Z,37.80
2019-05-12T13:55:23.812Z,38.00
2019-05-12T13:57:57.675Z,37.90
2019-05-12T14:00:26.917Z,37.50
2019-05-12T14:03:04.724Z,37.60
2019-05-12T14:05:30.521Z,37.30
2019-05-12T14:08:03.729Z,37.30
2019-05-12T14:10:37.419Z,36.50
2019-05-12T14:13:06.560Z,36.70
2019-05-12T14:15:37.436Z,36.70
2019-05-12T14:18:10.491Z,36.90
2019-05-12T14:20:44.712Z,36.60
2019-05-12T14:23:14.586Z,36.70
2019-05-12T14:25:45.676Z,36.40
2019-05-12T14:28:16.866Z,36.30
2019-05-12T14:30:51.688Z,36.60
2019-05-12T14:33:20.265Z,36.60
2019-05-12T14:35:53.559Z,36.90
2019-05-12T14:38:29.572Z,37.00
2019-05-12T14:41:01.392Z,37.00
2019-05-12T14:43:29.229Z,36.90
2019-05-12T14:46:04.945Z,36.80
2019-05-12T14:48:33.550Z,36.30
2019-05-12T14:51:04.546Z,36.50
2019-05-12T14:53:38.445Z,36.50
2019-05-12T14:56:07.914Z,36.10
2019-05-12T14:58:38.821Z,36.20
2019-05-12T15:01:09.733Z,36.30
2019-05-12T15:03:42.257Z,36.40
2019-05-12T15:06:14.194Z,36.70
2019-05-12T15:08:45.205Z,36.60
2019-05-12T15:11:16.134Z,36.70
2019-05-12T15:13:47.019Z,36.90
2019-05-12T15:16:17.890Z,36.90
2019-05-12T15:18:50.281Z,36.70
2019-05-12T15:21:26.161Z,36.40
2019-05-12T15:23:53.937Z,36.40
2019-05-12T15:26:24.877Z,36.40
2019-05-12T15:28:55.773Z,36.30
2019-05-12T15:31:26.661Z,35.70
2019-05-12T15:33:57.502Z,35.70
2019-05-12T15:36:28.392Z,35.70
2019-05-12T15:38:59.325Z,36.20
2019-05-12T15:41:33.065Z,36.40
2019-05-12T15:44:06.627Z,36.40
2019-05-12T15:46:41.004Z,36.20
2019-05-12T15:49:09.042Z,36.20
2019-05-12T15:51:53.125Z,36.30
2019-05-12T15:54:14.501Z,36.50
2019-05-12T15:56:44.917Z,36.40
2019-05-12T15:59:17.431Z,36.40
2019-05-12T16:01:49.980Z,36.10
2019-05-12T16:04:21.082Z,36.10
2019-05-12T16:06:55.393Z,36.10
2019-05-12T16:09:24.443Z,36.00
2019-05-12T16:11:55.292Z,35.80
2019-05-12T16:14:30.520Z,36.00
2019-05-12T16:16:58.681Z,36.20
2019-05-12T16:19:29.581Z,36.30
2019-05-12T16:22:00.600Z,36.60
2019-05-12T16:24:33.912Z,36.60
2019-05-12T16:27:04.002Z,36.70
2019-05-12T16:29:38.970Z,36.70
2019-05-12T16:32:22.237Z,36.70
2019-05-12T16:34:44.953Z,36.80
2019-05-12T16:37:14.236Z,36.90
2019-05-12T16:39:47.523Z,37.00
2019-05-12T16:42:17.987Z,37.00
2019-05-12T16:44:49.109Z,37.10
2019-05-12T16:47:27.351Z,37.00
2019-05-12T16:49:53.411Z,37.10
2019-05-12T16:52:24.507Z,37.40
2019-05-12T16:54:55.402Z,37.40
2019-05-12T16:57:26.340Z,37.40
2019-05-12T17:00:03.322Z,37.60
2019-05-12T17:02:39.507Z,37.50
2019-05-12T17:05:06.562Z,37.60
2019-05-12T17:07:35.193Z,37.90
2019-05-12T17:10:11.868Z,37.80
2019-05-12T17:12:40.570Z,37.80
2019-05-12T17:15:14.646Z,37.90
2019-05-12T17:17:44.980Z,37.80
2019-05-12T17:20:16.350Z,38.10
2019-05-12T17:22:54.274Z,38.10
2019-05-12T17:25:19.742Z,38.10
2019-05-12T17:27:50.616Z,38.20
2019-05-12T17:30:23.777Z,38.00
2019-05-12T17:33:00.705Z,38.10
2019-05-12T17:35:31.451Z,38.20
2019-05-12T17:37:59.501Z,38.40
2019-05-12T17:40:30.446Z,38.40
2019-05-12T17:43:06.765Z,38.50
2019-05-12T17:45:34.776Z,38.40
2019-05-12T17:48:07.597Z,38.60
2019-05-12T17:50:40.363Z,38.60
2019-05-12T17:53:13.797Z,38.70
2019-05-12T17:55:51.386Z,38.80
2019-05-12T17:58:17.317Z,38.80
2019-05-12T18:00:51.858Z,38.90
2019-05-12T18:03:22.166Z,38.90
2019-05-12T18:05:53.653Z,38.90
2019-05-12T18:08:32.458Z,38.90
2019-05-12T18:10:57.097Z,39.00
2019-05-12T18:13:28.327Z,39.00
2019-05-12T18:15:59.300Z,39.20
2019-05-12T18:18:32.626Z,39.20
2019-05-12T18:21:03.577Z,39.30
2019-05-12T18:23:34.576Z,39.30
2019-05-12T18:26:11.757Z,39.40
2019-05-12T18:28:38.769Z,39.40
2019-05-12T18:31:09.631Z,39.40
2019-05-12T18:33:50.852Z,39.40
2019-05-12T18:36:14.332Z,39.50
2019-05-12T18:38:45.639Z,39.60
2019-05-12T18:41:16.539Z,39.70
2019-05-12T18:43:47.390Z,39.80
2019-05-12T18:46:19.360Z,39.90
2019-05-12T18:48:56.658Z,39.90
2019-05-12T18:51:23.840Z,40.00
2019-05-12T18:53:57.711Z,40.00
2019-05-12T18:56:27.547Z,40.10
2019-05-12T18:59:05.101Z,40.20
2019-05-12T19:01:33.310Z,40.30
2019-05-12T19:04:03.866Z,40.30
2019-05-12T19:06:34.717Z,40.40
2019-05-12T19:09:07.913Z,40.40
2019-05-12T19:11:42.100Z,40.40
2019-05-12T19:14:13.475Z,40.50
2019-05-12T19:16:44.106Z,40.50
2019-05-12T19:19:19.665Z,40.60
2019-05-12T19:22:00.745Z,40.60
2019-05-12T19:24:20.296Z,40.70
2019-05-12T19:26:53.973Z,40.80
2019-05-12T19:29:24.296Z,40.80
2019-05-12T19:31:58.062Z,40.80
2019-05-12T19:34:31.851Z,40.80
2019-05-12T19:37:00.378Z,40.90
2019-05-12T19:39:31.292Z,40.90
2019-05-12T19:42:03.729Z,40.90
2019-05-12T19:44:34.763Z,40.90
2019-05-12T19:47:05.590Z,41.00
2019-05-12T19:49:46.598Z,41.10
2019-05-12T19:52:08.909Z,41.20
2019-05-12T19:54:40.124Z,41.20
2019-05-12T19:57:12.998Z,41.30
2019-05-12T19:59:50.596Z,41.40
2019-05-12T20:02:16.460Z,41.40
2019-05-12T20:04:52.138Z,41.40
2019-05-12T20:07:23.315Z,41.60
2019-05-12T20:09:56.085Z,41.60
2019-05-12T20:12:26.729Z,41.70
2019-05-12T20:14:59.284Z,41.80
2019-05-12T20:17:30.213Z,41.80
2019-05-12T20:20:01.053Z,41.90
2019-05-12T20:22:33.437Z,42.00
2019-05-12T20:25:04.622Z,42.00
2019-05-12T20:27:35.504Z,42.10
2019-05-12T20:30:15.360Z,42.20
2019-05-12T20:32:39.761Z,42.20
2019-05-12T20:35:10.619Z,42.30
2019-05-12T20:37:44.258Z,42.40
2019-05-12T20:40:14.214Z,42.50
2019-05-12T20:43:06.945Z,42.50
2019-05-12T20:45:18.083Z,42.60
2019-05-12T20:47:49.248Z,42.80
2019-05-12T20:50:24.326Z,42.70
2019-05-12T20:52:58.726Z,42.80
2019-05-12T20:55:30.131Z,42.80
2019-05-12T20:57:59.112Z,42.90
2019-05-12T21:00:29.964Z,42.90
2019-05-12T21:03:01.028Z,43.00
2019-05-12T21:05:34.172Z,43.10
2019-05-12T21:08:11.479Z,43.20
2019-05-12T21:10:36.873Z,43.20
2019-05-12T21:13:08.074Z,43.20
2019-05-12T21:15:42.766Z,43.40
2019-05-12T21:18:11.679Z,43.40
2019-05-12T21:20:46.390Z,43.50
2019-05-12T21:23:15.265Z,43.50
2019-05-12T21:25:52.161Z,43.60
2019-05-12T21:28:18.965Z,43.70
2019-05-12T21:30:49.949Z,43.70
2019-05-12T21:33:23.853Z,43.70
2019-05-12T21:35:54.642Z,43.90
2019-05-12T21:38:29.559Z,43.80
2019-05-12T21:41:02.149Z,44.00
2019-05-12T21:43:30.963Z,44.10
2019-05-12T21:46:10.197Z,44.20
2019-05-12T21:48:34.587Z,44.20
2019-05-12T21:51:09.895Z,44.40
2019-05-12T21:53:37.968Z,44.40
2019-05-12T21:56:09.170Z,44.50
2019-05-12T21:58:45.409Z,44.60
2019-05-12T22:01:13.557Z,44.80
2019-05-12T22:03:45.983Z,44.80
2019-05-12T22:06:21.707Z,44.90
2019-05-12T22:08:55.477Z,44.90
2019-05-12T22:11:24.110Z,45.00
2019-05-12T22:14:00.117Z,45.10
2019-05-12T22:16:29.584Z,45.20
2019-05-12T22:19:00.012Z,45.30
2019-05-12T22:21:35.710Z,45.40
2019-05-12T22:24:04.009Z,45.40
2019-05-12T22:26:39.691Z,45.50
2019-05-12T22:29:08.692Z,45.60
2019-05-12T22:31:44.871Z,45.60
2019-05-12T22:34:12.019Z,45.70
2019-05-12T22:36:45.507Z,45.70
2019-05-12T22:39:15.401Z,45.90
2019-05-12T22:41:46.628Z,46.00
2019-05-12T22:44:20.908Z,46.20
2019-05-12T22:46:49.981Z,46.10
2019-05-12T22:49:21.333Z,46.30
2019-05-12T22:51:54.631Z,46.40
2019-05-12T22:54:24.785Z,46.40
2019-05-12T22:56:56.906Z,46.50
2019-05-12T22:59:31.952Z,46.70
2019-05-12T23:02:00.605Z,46.70
2019-05-12T23:04:35.546Z,46.80
2019-05-12T23:07:04.005Z,46.90
2019-05-12T23:09:35.159Z,46.90
2019-05-12T23:12:09.704Z,47.10
2019-05-12T23:14:38.513Z,47.10
2019-05-12T23:17:09.582Z,47.20
2019-05-12T23:19:42.999Z,47.30
2019-05-12T23:22:14.211Z,47.40
2019-05-12T23:24:45.159Z,47.50
2019-05-12T23:27:18.732Z,47.60
2019-05-12T23:29:48.855Z,47.60
2019-05-12T23:32:19.740Z,47.70
2019-05-12T23:34:56.559Z,47.80
2019-05-12T23:37:24.525Z,47.80
2019-05-12T23:39:55.417Z,47.90
2019-05-12T23:42:26.236Z,48.00
2019-05-12T23:44:57.132Z,48.00
2019-05-12T23:47:27.999Z,48.10
2019-05-12T23:49:58.916Z,48.30
2019-05-12T23:52:29.776Z,48.50
2019-05-12T23:55:00.634Z,48.50
2019-05-12T23:57:33.817Z,48.60
